Kea Lani — VMQ4334 — position and weather

sailwx.info

Track history (hours):
 
Tides and Currents Weather Stations Pressure Air Temp Water Temp Dewpoint Dewpoint Depression Visibility Wind Speed Wind Dir Waves Ship Positions

Kea Lani

Last reported at 2018-Jan-09 18:57 UTC. Time now 2018-Feb-24 22:15 UTC.
Position S 27°30' E 153°22'.
Warning: this ship's position is 46 days out of date.

Length 14 m.

Type: Sailing vessel. MMSI: 503012130.

Date/timePositionNaut miles runAvg speedWind from/ knotsBaromVisibWave heightAir tempDewpointWater temp
2018-Jan-09 18:57S 27°30' E 153°22'0 0.0
2018-Jan-09 18:27S 27°30' E 153°22'0 0.0
2018-Jan-09 17:54S 27°30' E 153°22'0 0.0
2018-Jan-09 17:27S 27°30' E 153°22'0 0.0
2018-Jan-09 17:00S 27°30' E 153°22'0 0.0
2018-Jan-09 16:18S 27°30' E 153°22'0 0.0
2018-Jan-09 16:00S 27°30' E 153°22'0 0.0
2018-Jan-09 15:27S 27°30' E 153°22'0 0.0
2018-Jan-09 14:51S 27°30' E 153°22'0 0.0
2018-Jan-09 14:24S 27°30' E 153°22'0 0.0
2018-Jan-09 13:30S 27°30' E 153°22'0 0.0
2018-Jan-09 12:40S 27°30' E 153°22'0 0.0
2018-Jan-09 12:10S 27°30' E 153°22'0 0.0
2018-Jan-09 11:58S 27°30' E 153°22'0 0.0
2018-Jan-09 11:25S 27°30' E 153°22'0 0.0
2018-Jan-09 10:58S 27°30' E 153°22'0 0.0
2018-Jan-09 10:16S 27°30' E 153°22'0 0.0
2018-Jan-09 09:58S 27°30' E 153°22'0 0.0
2018-Jan-09 09:26S 27°30' E 153°22'0 0.0
2018-Jan-09 09:00S 27°30' E 153°22'0 0.0
2018-Jan-09 08:24S 27°30' E 153°22'0 0.0
2018-Jan-09 07:57S 27°30' E 153°22'0 0.0
2018-Jan-09 07:23S 27°30' E 153°22'0 0.0
2018-Jan-09 04:44S 27°30' E 153°22'0 0.0
2018-Jan-09 04:29S 27°30' E 153°22'0 0.0
2018-Jan-09 03:50S 27°30' E 153°22'0 0.0
2018-Jan-09 02:32S 27°30' E 153°22'0 0.0
2018-Jan-09 02:29S 27°30' E 153°22'0 0.1
2018-Jan-09 01:52S 27°30' E 153°22'  
2018-Jan-02 05:44S 27°31' E 153°24'0 0.0
2018-Jan-02 05:20S 27°31' E 153°24'3 0.1
2018-Jan-01 05:58S 27°30' E 153°22'0 0.0
2018-Jan-01 05:19S 27°30' E 153°22'0 0.1
2018-Jan-01 04:40S 27°30' E 153°22'0 0.0
2018-Jan-01 02:58S 27°30' E 153°22'1 0.6
2018-Jan-01 01:22S 27°31' E 153°22'7 7.7
2018-Jan-01 00:30S 27°38' E 153°24'1 0.2
2017-Dec-31 21:00S 27°38' E 153°25'0 0.0
2017-Dec-31 20:30S 27°38' E 153°25'0 0.0
2017-Dec-31 20:00S 27°38' E 153°25'0 0.0
2017-Dec-31 19:27S 27°38' E 153°25'0 0.0
2017-Dec-31 19:00S 27°38' E 153°25'0 0.0
2017-Dec-31 18:30S 27°38' E 153°25'0 0.0
2017-Dec-31 18:00S 27°38' E 153°25'0 0.0
2017-Dec-31 17:30S 27°38' E 153°25'0 0.0
2017-Dec-31 17:00S 27°38' E 153°25'0 0.0
2017-Dec-31 16:30S 27°38' E 153°25'0 0.0
2017-Dec-31 16:00S 27°38' E 153°25'0 0.0
2017-Dec-31 15:30S 27°38' E 153°25'0 0.0
2017-Dec-31 15:00S 27°38' E 153°25'0 0.0
2017-Dec-31 14:30S 27°38' E 153°25'0 0.0
2017-Dec-31 13:57S 27°38' E 153°25'0 0.0
2017-Dec-31 13:27S 27°38' E 153°25'0 0.0
2017-Dec-31 13:00S 27°38' E 153°25'0 0.0
2017-Dec-31 12:30S 27°38' E 153°25'0 0.0
2017-Dec-31 12:00S 27°38' E 153°25'0 0.0
2017-Dec-31 11:30S 27°38' E 153°25'0 0.0
2017-Dec-31 11:00S 27°38' E 153°25'0 0.0
2017-Dec-31 10:30S 27°38' E 153°25'0 0.0
2017-Dec-31 10:00S 27°38' E 153°25'0 0.0
2017-Dec-31 09:27S 27°38' E 153°25'0 0.0
2017-Dec-31 09:00S 27°38' E 153°25'0 0.0
2017-Dec-31 08:30S 27°38' E 153°25'0 0.0
2017-Dec-31 08:00S 27°38' E 153°25'0 0.0
2017-Dec-31 07:30S 27°38' E 153°25'0 0.0
2017-Dec-31 07:00S 27°38' E 153°25'0 0.0
2017-Dec-31 06:30S 27°38' E 153°25'0 0.0
2017-Dec-31 06:00S 27°38' E 153°25'0 0.0
2017-Dec-31 05:27S 27°38' E 153°25'0 0.0
2017-Dec-31 05:00S 27°38' E 153°25'0 0.0
2017-Dec-31 04:29S 27°38' E 153°25'0 0.0
2017-Dec-31 03:59S 27°38' E 153°25'0 0.0
2017-Dec-31 03:29S 27°38' E 153°25'0 0.0
2017-Dec-31 02:59S 27°38' E 153°25'0 0.0
2017-Dec-31 02:29S 27°38' E 153°25'0 0.0
2017-Dec-31 01:59S 27°38' E 153°25'0 0.0
2017-Dec-31 01:25S 27°38' E 153°25'0 0.0
2017-Dec-31 00:58S 27°38' E 153°25'0 0.1
2017-Dec-31 00:30S 27°38' E 153°25'3 6.8
2017-Dec-31 00:00S 27°35' E 153°24'4 7.3
2017-Dec-30 23:26S 27°31' E 153°22'  
Track history (hours):
 
Tides and Currents Weather Stations Pressure Air Temp Water Temp Dewpoint Dewpoint Depression Visibility Wind Speed Wind Dir Waves Ship Positions

Kea Lani

Last reported at 2018-Jan-09 18:57 UTC. Time now 2018-Feb-24 22:15 UTC.
Position S 27°30' E 153°22'.
Warning: this ship's position is 46 days out of date.

Length 14 m.

Type: Sailing vessel. MMSI: 503012130.

Date/timePositionNaut miles runAvg speedWind from/ knotsBaromVisibWave heightAir tempDewpointWater temp
2018-Jan-09 18:57S 27°30' E 153°22'0 0.0
2018-Jan-09 18:27S 27°30' E 153°22'0 0.0
2018-Jan-09 17:54S 27°30' E 153°22'0 0.0
2018-Jan-09 17:27S 27°30' E 153°22'0 0.0
2018-Jan-09 17:00S 27°30' E 153°22'0 0.0
2018-Jan-09 16:18S 27°30' E 153°22'0 0.0
2018-Jan-09 16:00S 27°30' E 153°22'0 0.0
2018-Jan-09 15:27S 27°30' E 153°22'0 0.0
2018-Jan-09 14:51S 27°30' E 153°22'0 0.0
2018-Jan-09 14:24S 27°30' E 153°22'0 0.0
2018-Jan-09 13:30S 27°30' E 153°22'0 0.0
2018-Jan-09 12:40S 27°30' E 153°22'0 0.0
2018-Jan-09 12:10S 27°30' E 153°22'0 0.0
2018-Jan-09 11:58S 27°30' E 153°22'0 0.0
2018-Jan-09 11:25S 27°30' E 153°22'0 0.0
2018-Jan-09 10:58S 27°30' E 153°22'0 0.0
2018-Jan-09 10:16S 27°30' E 153°22'0 0.0
2018-Jan-09 09:58S 27°30' E 153°22'0 0.0
2018-Jan-09 09:26S 27°30' E 153°22'0 0.0
2018-Jan-09 09:00S 27°30' E 153°22'0 0.0
2018-Jan-09 08:24S 27°30' E 153°22'0 0.0
2018-Jan-09 07:57S 27°30' E 153°22'0 0.0
2018-Jan-09 07:23S 27°30' E 153°22'0 0.0
2018-Jan-09 04:44S 27°30' E 153°22'0 0.0
2018-Jan-09 04:29S 27°30' E 153°22'0 0.0
2018-Jan-09 03:50S 27°30' E 153°22'0 0.0
2018-Jan-09 02:32S 27°30' E 153°22'0 0.0
2018-Jan-09 02:29S 27°30' E 153°22'0 0.1
2018-Jan-09 01:52S 27°30' E 153°22'  
2018-Jan-02 05:44S 27°31' E 153°24'0 0.0
2018-Jan-02 05:20S 27°31' E 153°24'3 0.1
2018-Jan-01 05:58S 27°30' E 153°22'0 0.0
2018-Jan-01 05:19S 27°30' E 153°22'0 0.1
2018-Jan-01 04:40S 27°30' E 153°22'0 0.0
2018-Jan-01 02:58S 27°30' E 153°22'1 0.6
2018-Jan-01 01:22S 27°31' E 153°22'7 7.7
2018-Jan-01 00:30S 27°38' E 153°24'1 0.2
2017-Dec-31 21:00S 27°38' E 153°25'0 0.0
2017-Dec-31 20:30S 27°38' E 153°25'0 0.0
2017-Dec-31 20:00S 27°38' E 153°25'0 0.0
2017-Dec-31 19:27S 27°38' E 153°25'0 0.0
2017-Dec-31 19:00S 27°38' E 153°25'0 0.0
2017-Dec-31 18:30S 27°38' E 153°25'0 0.0
2017-Dec-31 18:00S 27°38' E 153°25'0 0.0
2017-Dec-31 17:30S 27°38' E 153°25'0 0.0
2017-Dec-31 17:00S 27°38' E 153°25'0 0.0
2017-Dec-31 16:30S 27°38' E 153°25'0 0.0
2017-Dec-31 16:00S 27°38' E 153°25'0 0.0
2017-Dec-31 15:30S 27°38' E 153°25'0 0.0
2017-Dec-31 15:00S 27°38' E 153°25'0 0.0
2017-Dec-31 14:30S 27°38' E 153°25'0 0.0
2017-Dec-31 13:57S 27°38' E 153°25'0 0.0
2017-Dec-31 13:27S 27°38' E 153°25'0 0.0
2017-Dec-31 13:00S 27°38' E 153°25'0 0.0
2017-Dec-31 12:30S 27°38' E 153°25'0 0.0
2017-Dec-31 12:00S 27°38' E 153°25'0 0.0
2017-Dec-31 11:30S 27°38' E 153°25'0 0.0
2017-Dec-31 11:00S 27°38' E 153°25'0 0.0
2017-Dec-31 10:30S 27°38' E 153°25'0 0.0
2017-Dec-31 10:00S 27°38' E 153°25'0 0.0
2017-Dec-31 09:27S 27°38' E 153°25'0 0.0
2017-Dec-31 09:00S 27°38' E 153°25'0 0.0
2017-Dec-31 08:30S 27°38' E 153°25'0 0.0
2017-Dec-31 08:00S 27°38' E 153°25'0 0.0
2017-Dec-31 07:30S 27°38' E 153°25'0 0.0
2017-Dec-31 07:00S 27°38' E 153°25'0 0.0
2017-Dec-31 06:30S 27°38' E 153°25'0 0.0
2017-Dec-31 06:00S 27°38' E 153°25'0 0.0
2017-Dec-31 05:27S 27°38' E 153°25'0 0.0
2017-Dec-31 05:00S 27°38' E 153°25'0 0.0
2017-Dec-31 04:29S 27°38' E 153°25'0 0.0
2017-Dec-31 03:59S 27°38' E 153°25'0 0.0
2017-Dec-31 03:29S 27°38' E 153°25'0 0.0
2017-Dec-31 02:59S 27°38' E 153°25'0 0.0
2017-Dec-31 02:29S 27°38' E 153°25'0 0.0
2017-Dec-31 01:59S 27°38' E 153°25'0 0.0
2017-Dec-31 01:25S 27°38' E 153°25'0 0.0
2017-Dec-31 00:58S 27°38' E 153°25'0 0.1
2017-Dec-31 00:30S 27°38' E 153°25'3 6.8
2017-Dec-31 00:00S 27°35' E 153°24'4 7.3
2017-Dec-30 23:26S 27°31' E 153°22'  

Dump ship's entire track history